Time;durP1;ratioP1;P1;durP2;ratioP2;P2;SDS_P1;SDS_P2;PMS_P1;PMS_P2;Temp;Humidity;BMP_temperature;BMP_pressure;BME280_temperature;BME280_humidity;BME280_pressure;Samples;Min_cycle;Max_cycle;Signal;HPM_P1;HPM_P2
2021/06/24 00:01:11;;;;;;;10.82;4.10;;;;;;;10.12;90.25;102448.41;5014538;28;20045;-54
2021/06/24 00:03:37;;;;;;;7.05;4.38;;;;;;;10.17;89.90;102461.63;5008114;28;20037;-57
2021/06/24 00:06:03;;;;;;;3.95;3.50;;;;;;;10.15;89.67;102458.09;5015419;28;20033;-54
2021/06/24 00:08:29;;;;;;;7.00;3.95;;;;;;;10.13;89.92;102457.25;5002913;28;20022;-54
2021/06/24 00:10:56;;;;;;;9.55;4.20;;;;;;;10.10;89.86;102444.00;5012737;28;20040;-54
2021/06/24 00:13:22;;;;;;;4.18;3.78;;;;;;;10.06;90.14;102442.31;5011318;28;20163;-55
2021/06/24 00:15:48;;;;;;;6.95;3.63;;;;;;;10.03;90.49;102437.94;5011168;28;20061;-54
2021/06/24 00:18:14;;;;;;;7.40;3.90;;;;;;;10.08;90.51;102449.38;5011815;28;20034;-51
2021/06/24 00:20:43;;;;;;;8.65;3.70;;;;;;;10.13;90.78;102444.81;5008771;28;20639;-52
2021/06/24 00:23:09;;;;;;;9.30;4.20;;;;;;;10.21;90.25;102446.44;5018415;28;20474;-53
2021/06/24 00:25:34;;;;;;;7.43;3.83;;;;;;;10.25;89.94;102438.31;5013038;28;20040;-56
2021/06/24 00:28:01;;;;;;;7.38;3.72;;;;;;;10.26;89.72;102434.75;5009676;28;20033;-49
2021/06/24 00:30:26;;;;;;;8.02;3.75;;;;;;;10.25;89.72;102425.00;5014364;28;20026;-53
2021/06/24 00:32:51;;;;;;;4.90;3.92;;;;;;;10.27;89.32;102433.81;5010538;28;20033;-50
2021/06/24 00:35:17;;;;;;;7.25;3.38;;;;;;;10.29;88.79;102439.13;5016829;28;20761;-51
2021/06/24 00:37:43;;;;;;;9.15;3.97;;;;;;;10.28;88.63;102445.38;5010220;28;20053;-50
2021/06/24 00:40:10;;;;;;;8.68;3.17;;;;;;;10.24;88.51;102439.25;5008137;28;20025;-49
2021/06/24 00:42:36;;;;;;;5.80;3.38;;;;;;;10.19;88.75;102433.09;5009333;28;20353;-50
2021/06/24 00:45:03;;;;;;;4.47;3.25;;;;;;;10.11;88.62;102435.97;5015238;28;20355;-54
2021/06/24 00:47:29;;;;;;;5.35;3.33;;;;;;;10.02;89.17;102432.66;5011163;28;20026;-54
2021/06/24 00:49:54;;;;;;;7.43;3.90;;;;;;;9.92;89.84;102434.66;5013496;28;20040;-55
2021/06/24 00:52:19;;;;;;;5.22;4.25;;;;;;;9.85;90.38;102441.03;5019148;28;20039;-54
2021/06/24 00:54:45;;;;;;;7.72;4.60;;;;;;;9.79;91.05;102439.38;4994815;28;20033;-54
2021/06/24 00:57:10;;;;;;;4.90;4.25;;;;;;;9.77;91.42;102435.84;5010935;28;20088;-54
2021/06/24 00:59:37;;;;;;;6.00;4.60;;;;;;;9.75;91.68;102437.66;5008287;28;20134;-50
2021/06/24 01:02:04;;;;;;;6.13;4.72;;;;;;;9.73;91.85;102427.03;5010564;28;20769;-53
2021/06/24 01:04:30;;;;;;;8.32;4.55;;;;;;;9.69;91.57;102427.13;5009493;28;20520;-52
2021/06/24 01:06:56;;;;;;;6.25;4.38;;;;;;;9.65;92.29;102432.50;5010448;28;20029;-55
2021/06/24 01:09:21;;;;;;;9.60;4.65;;;;;;;9.63;92.15;102438.78;5010026;28;20033;-50
2021/06/24 01:11:47;;;;;;;7.35;5.28;;;;;;;9.62;92.35;102432.59;5009115;28;20501;-51
2021/06/24 01:14:13;;;;;;;6.40;5.05;;;;;;;9.64;93.02;102438.78;5015726;28;20033;-53
2021/06/24 01:16:39;;;;;;;11.00;5.38;;;;;;;9.72;93.33;102437.75;5009499;28;20619;-48
2021/06/24 01:19:06;;;;;;;9.30;5.88;;;;;;;9.80;93.63;102439.31;5014803;28;20068;-52
2021/06/24 01:21:33;;;;;;;8.63;6.28;;;;;;;9.94;93.82;102448.78;5009439;28;20515;-53
2021/06/24 01:23:58;;;;;;;10.43;6.40;;;;;;;10.07;93.74;102449.41;5010258;28;20036;-54
2021/06/24 01:26:24;;;;;;;11.52;6.03;;;;;;;10.18;93.42;102452.72;5005886;28;20025;-54
2021/06/24 01:28:49;;;;;;;10.55;5.72;;;;;;;10.29;93.00;102456.00;5011678;28;20025;-53
2021/06/24 01:31:15;;;;;;;8.35;5.90;;;;;;;10.42;92.96;102463.75;5011390;28;20030;-54
2021/06/24 01:33:41;;;;;;;;;;;;;;;10.54;92.64;102451.88;5012072;28;20444;-54
2021/06/24 01:36:06;;;;;;;9.33;4.33;;;;;;;10.63;91.84;102453.47;5015852;28;19924;-54
2021/06/24 01:38:32;;;;;;;8.32;3.90;;;;;;;10.68;90.84;102446.22;5011681;28;20044;-54
2021/06/24 01:40:58;;;;;;;8.40;4.68;;;;;;;10.76;90.49;102445.13;5011439;28;20562;-56
2021/06/24 01:43:24;;;;;;;7.78;4.22;;;;;;;10.82;89.39;102444.06;5012408;28;20041;-54
2021/06/24 01:45:53;;;;;;;14.23;4.45;;;;;;;10.87;88.44;102435.94;5010950;28;20604;-54
2021/06/24 01:48:19;;;;;;;9.25;4.65;;;;;;;10.93;88.18;102435.78;5014573;28;21044;-54
2021/06/24 01:50:45;;;;;;;6.03;4.15;;;;;;;10.98;88.09;102439.22;5006726;28;20037;-53
2021/06/24 01:53:10;;;;;;;8.57;4.40;;;;;;;10.99;87.55;102440.97;5009767;28;20033;-54
2021/06/24 01:55:36;;;;;;;6.07;3.75;;;;;;;11.04;87.48;102443.50;5007883;28;20506;-54
2021/06/24 01:58:04;;;;;;;7.30;4.50;;;;;;;11.06;87.57;102441.69;5010830;28;20037;-55
2021/06/24 02:00:29;;;;;;;6.78;3.80;;;;;;;11.08;86.96;102439.84;5011637;28;20786;-56
2021/06/24 02:02:56;;;;;;;5.57;3.92;;;;;;;11.09;87.06;102439.81;5007659;28;20034;-54
2021/06/24 02:05:21;;;;;;;;;;;;;;;11.10;86.74;102432.69;5012982;28;20026;-55
2021/06/24 02:07:46;;;;;;;6.10;4.10;;;;;;;11.11;87.11;102434.41;5009237;28;19916;-57
2021/06/24 02:10:12;;;;;;;8.68;4.40;;;;;;;11.09;86.68;102439.81;5012619;28;20692;-54
2021/06/24 02:12:39;;;;;;;8.57;4.50;;;;;;;11.09;86.84;102430.94;5006186;28;20365;-53
2021/06/24 02:15:06;;;;;;;11.00;4.57;;;;;;;11.08;86.66;102424.69;5015747;28;20044;-55
2021/06/24 02:17:32;;;;;;;6.95;4.15;;;;;;;11.06;86.54;102420.31;5006294;28;20456;-54
2021/06/24 02:19:57;;;;;;;5.47;4.22;;;;;;;10.97;86.45;102412.53;5007797;28;20033;-54
2021/06/24 02:22:23;;;;;;;7.03;4.70;;;;;;;10.83;87.45;102408.44;5011755;28;20049;-53
2021/06/24 02:24:48;;;;;;;6.88;4.15;;;;;;;10.69;88.00;102403.47;5010238;28;20042;-53
2021/06/24 02:27:14;;;;;;;6.75;4.47;;;;;;;10.60;88.36;102401.91;5011745;28;20033;-53
2021/06/24 02:29:39;;;;;;;8.60;5.00;;;;;;;10.51;88.69;102393.28;5003228;28;20029;-54
2021/06/24 02:32:05;;;;;;;10.10;5.05;;;;;;;10.40;89.00;102393.56;5008865;28;20041;-53
2021/06/24 02:34:30;;;;;;;10.40;5.68;;;;;;;10.27;89.70;102388.47;5007216;28;20064;-57
2021/06/24 02:36:56;;;;;;;9.18;5.90;;;;;;;10.18;90.41;102393.16;5006615;28;20025;-54
2021/06/24 02:39:22;;;;;;;;;;;;;;;10.09;90.52;102388.94;5007565;28;20047;-53
2021/06/24 02:41:47;;;;;;;14.40;6.63;;;;;;;10.00;90.98;102395.34;5011875;28;20830;-55
2021/06/24 02:44:12;;;;;;;10.07;6.10;;;;;;;9.99;91.31;102388.28;5014711;28;20044;-52
2021/06/24 02:46:38;;;;;;;6.55;5.82;;;;;;;9.94;91.42;102385.72;5006274;28;20441;-52
2021/06/24 02:49:03;;;;;;;9.63;5.63;;;;;;;9.86;91.43;102387.66;5015571;28;20134;-54
2021/06/24 02:51:29;;;;;;;10.30;6.85;;;;;;;9.77;91.80;102387.88;5013265;28;20025;-52
2021/06/24 02:53:54;;;;;;;9.85;6.63;;;;;;;9.71;92.24;102388.88;5010199;28;20092;-55
2021/06/24 02:56:23;;;;;;;10.35;7.35;;;;;;;9.64;92.58;102388.16;5007345;28;20160;-55
2021/06/24 02:58:49;;;;;;;10.73;7.35;;;;;;;9.63;92.94;102393.50;5010091;28;20591;-54
2021/06/24 03:01:14;;;;;;;9.13;7.03;;;;;;;9.63;93.23;102390.81;5010084;28;20025;-55
2021/06/24 03:03:41;;;;;;;10.55;7.25;;;;;;;9.61;93.45;102390.88;5010801;28;20056;-56
2021/06/24 03:06:07;;;;;;;10.13;7.95;;;;;;;9.64;93.75;102393.47;5016191;28;20065;-55
2021/06/24 03:08:32;;;;;;;11.90;7.65;;;;;;;9.68;94.02;102383.63;5013401;28;20536;-53
2021/06/24 03:10:58;;;;;;;9.45;7.97;;;;;;;9.76;94.33;102383.44;5016477;28;20030;-53
2021/06/24 03:13:23;;;;;;;12.18;9.00;;;;;;;9.81;94.16;102389.53;5015573;28;20025;-54
2021/06/24 03:15:48;;;;;;;19.58;10.45;;;;;;;9.89;93.89;102387.59;5011884;28;20032;-49
2021/06/24 03:18:14;;;;;;;10.07;8.23;;;;;;;10.01;94.43;102390.91;5007598;28;20061;-56
2021/06/24 03:20:40;;;;;;;14.95;8.30;;;;;;;10.12;94.23;102400.41;5011100;28;20057;-50
2021/06/24 03:23:05;;;;;;;10.45;8.05;;;;;;;10.24;94.19;102393.91;5014541;28;20083;-53
2021/06/24 03:25:31;;;;;;;12.82;7.63;;;;;;;10.35;92.90;102390.06;5013800;28;20477;-56
2021/06/24 03:27:57;;;;;;;14.07;7.80;;;;;;;10.48;92.65;102402.25;5014583;28;20053;-54
2021/06/24 03:30:22;;;;;;;9.10;6.85;;;;;;;10.58;92.21;102398.41;5018125;28;20049;-53
2021/06/24 03:32:49;;;;;;;7.78;6.05;;;;;;;10.66;91.75;102400.91;5013826;28;20497;-54
2021/06/24 03:35:15;;;;;;;11.82;6.95;;;;;;;10.74;90.93;102398.00;5013489;28;20025;-55
2021/06/24 03:37:40;;;;;;;12.52;7.18;;;;;;;10.80;90.85;102400.53;5012234;28;20115;-52
2021/06/24 03:40:10;;;;;;;9.20;6.28;;;;;;;10.87;90.18;102387.88;5015651;28;20025;-53
2021/06/24 03:42:36;;;;;;;11.90;6.00;;;;;;;10.91;89.68;102386.91;5012044;28;20046;-54
2021/06/24 03:45:05;;;;;;;12.68;6.30;;;;;;;10.93;89.17;102380.59;5011798;28;20505;-53
2021/06/24 03:47:30;;;;;;;8.40;5.60;;;;;;;10.99;88.99;102384.91;5013983;28;20903;-55
2021/06/24 03:49:56;;;;;;;10.13;5.85;;;;;;;11.04;88.70;102379.41;5013358;28;20033;-52
2021/06/24 03:52:21;;;;;;;9.75;6.70;;;;;;;11.04;88.35;102372.28;5013982;28;20028;-55
2021/06/24 03:54:46;;;;;;;8.73;5.93;;;;;;;11.05;88.13;102373.16;5014545;28;20044;-52
2021/06/24 03:57:12;;;;;;;13.30;6.50;;;;;;;11.08;88.08;102373.09;5014943;28;20059;-53
2021/06/24 03:59:37;;;;;;;10.93;6.68;;;;;;;11.12;88.25;102388.09;5010902;28;20318;-53
2021/06/24 04:02:03;;;;;;;11.35;5.88;;;;;;;11.19;88.52;102383.47;5015628;28;20428;-53
2021/06/24 04:04:29;;;;;;;9.13;6.55;;;;;;;11.27;88.00;102383.22;5012932;28;20033;-51
2021/06/24 04:06:56;;;;;;;9.98;6.38;;;;;;;11.31;88.06;102376.88;5014550;28;20420;-54
2021/06/24 04:09:21;;;;;;;10.10;6.25;;;;;;;11.36;87.96;102378.50;5019436;28;20339;-54
2021/06/24 04:11:47;;;;;;;8.35;5.93;;;;;;;11.41;87.79;102378.38;5013875;28;20119;-56
2021/06/24 04:14:12;;;;;;;13.73;6.70;;;;;;;11.45;87.49;102385.38;5016665;28;20953;-53
2021/06/24 04:16:38;;;;;;;11.00;6.68;;;;;;;11.50;87.68;102383.44;5008669;28;20352;-52
2021/06/24 04:19:03;;;;;;;12.70;7.03;;;;;;;11.56;87.66;102377.94;5016405;28;20076;-54
2021/06/24 04:21:29;;;;;;;8.93;6.60;;;;;;;11.64;87.79;102379.50;5012646;28;20041;-53
2021/06/24 04:23:54;;;;;;;9.30;6.53;;;;;;;11.69;87.43;102372.19;5014205;28;20046;-55
2021/06/24 04:26:20;;;;;;;12.70;6.78;;;;;;;11.70;87.34;102368.63;5015169;28;20037;-54
2021/06/24 04:28:45;;;;;;;8.65;7.10;;;;;;;11.71;87.42;102371.22;5014454;28;20025;-55
2021/06/24 04:31:11;;;;;;;13.15;6.22;;;;;;;11.78;87.40;102371.94;5012057;28;20635;-54
2021/06/24 04:33:36;;;;;;;8.90;6.20;;;;;;;11.82;87.15;102370.88;5011512;28;20887;-53
2021/06/24 04:36:02;;;;;;;10.10;6.05;;;;;;;11.87;86.45;102371.66;5014143;28;20035;-54
2021/06/24 04:38:27;;;;;;;11.85;6.80;;;;;;;11.82;86.32;102378.91;5012185;28;20392;-54
2021/06/24 04:40:53;;;;;;;10.27;6.35;;;;;;;11.83;86.66;102369.97;5014893;28;20103;-51
2021/06/24 04:43:18;;;;;;;11.20;6.57;;;;;;;11.90;86.65;102380.47;5015431;28;20421;-55
2021/06/24 04:45:44;;;;;;;10.95;6.15;;;;;;;11.87;86.25;102377.00;5011478;28;20448;-54
2021/06/24 04:48:09;;;;;;;9.70;6.57;;;;;;;11.93;86.69;102385.72;5011900;28;20543;-54
2021/06/24 04:50:36;;;;;;;9.77;6.68;;;;;;;11.98;86.48;102379.34;5009718;28;20032;-54
2021/06/24 04:53:02;;;;;;;10.90;6.38;;;;;;;12.09;86.78;102381.69;5012966;28;20032;-56
2021/06/24 04:55:28;;;;;;;10.37;5.87;;;;;;;12.18;86.21;102386.72;5010681;28;20025;-55
2021/06/24 04:58:03;;;;;;;9.57;6.60;;;;;;;12.24;85.88;102385.66;5009288;28;20851;-55
2021/06/24 05:00:28;;;;;;;11.80;6.78;;;;;;;12.30;86.26;102384.56;5011870;28;20291;-52
2021/06/24 05:02:54;;;;;;;14.43;6.43;;;;;;;12.37;85.85;102383.44;5015898;28;20122;-56
2021/06/24 05:05:19;;;;;;;7.10;6.43;;;;;;;12.38;85.36;102374.50;5009993;28;20048;-56
2021/06/24 05:07:45;;;;;;;10.55;6.32;;;;;;;12.44;85.26;102365.41;5013457;28;20030;-55
2021/06/24 05:10:11;;;;;;;15.82;7.05;;;;;;;12.58;84.74;102376.50;5014201;28;20202;-53
2021/06/24 05:12:36;;;;;;;12.67;7.20;;;;;;;12.68;84.37;102362.81;5004830;28;20391;-55
2021/06/24 05:15:03;;;;;;;11.23;6.40;;;;;;;12.80;84.19;102367.72;5013394;28;20308;-54
2021/06/24 05:17:28;;;;;;;;;;;;;;;12.96;83.56;102368.03;5012546;28;20030;-55
2021/06/24 05:19:54;;;;;;;12.57;6.43;;;;;;;13.08;83.08;102369.38;5013615;28;19928;-55
2021/06/24 05:22:19;;;;;;;12.25;6.78;;;;;;;13.18;82.17;102380.66;5009877;28;20025;-55
2021/06/24 05:24:45;;;;;;;8.02;6.03;;;;;;;13.24;83.58;102373.25;5009275;28;20357;-54
2021/06/24 05:27:10;;;;;;;8.82;5.70;;;;;;;13.27;81.11;102369.56;5012036;28;20131;-52
2021/06/24 05:29:37;;;;;;;11.02;6.43;;;;;;;13.35;82.02;102367.50;5011624;28;20597;-56
2021/06/24 05:32:02;;;;;;;;;;;;;;;13.40;80.57;102364.66;5014430;28;20033;-57
2021/06/24 05:34:27;;;;;;;11.47;5.80;;;;;;;13.47;81.21;102373.38;5008784;28;19921;-54
2021/06/24 05:36:53;;;;;;;9.55;6.05;;;;;;;13.52;80.32;102371.38;5010076;28;20396;-56
2021/06/24 05:39:18;;;;;;;9.50;5.78;;;;;;;13.56;80.27;102351.56;5008916;28;20041;-54
2021/06/24 05:41:44;;;;;;;10.15;5.05;;;;;;;13.59;80.05;102357.69;5008013;28;20065;-55
2021/06/24 05:44:09;;;;;;;16.73;6.25;;;;;;;13.58;79.57;102352.34;5014207;28;20575;-57
2021/06/24 05:46:34;;;;;;;12.02;5.80;;;;;;;13.73;79.78;102351.75;5007318;28;20063;-53
2021/06/24 05:49:00;;;;;;;11.00;5.55;;;;;;;13.85;78.79;102350.41;5016791;28;20377;-54
2021/06/24 05:51:25;;;;;;;16.98;5.82;;;;;;;13.80;79.14;102351.50;5012747;28;20083;-55
2021/06/24 05:53:51;;;;;;;10.80;6.15;;;;;;;13.79;78.61;102341.75;5012420;28;20060;-57
2021/06/24 05:56:17;;;;;;;12.38;5.85;;;;;;;13.80;78.63;102349.72;5009670;28;20039;-55
2021/06/24 05:58:43;;;;;;;;;;;;;;;13.89;77.98;102343.97;5010576;28;20060;-55
2021/06/24 06:01:08;;;;;;;13.97;5.83;;;;;;;13.98;77.48;102342.72;5009528;28;20015;-55
2021/06/24 06:03:33;;;;;;;8.82;5.43;;;;;;;14.22;77.46;102339.97;5010888;28;20167;-55
2021/06/24 06:05:59;;;;;;;9.10;5.38;;;;;;;14.47;76.15;102342.47;5013079;28;20099;-53
2021/06/24 06:08:27;;;;;;;11.25;5.20;;;;;;;14.67;75.42;102340.78;5012145;28;20442;-56
2021/06/24 06:10:52;;;;;;;9.73;5.30;;;;;;;14.84;74.21;102348.09;5006435;28;20108;-53
2021/06/24 06:13:17;;;;;;;9.93;5.32;;;;;;;14.80;73.96;102343.78;5009692;28;20290;-55
2021/06/24 06:15:47;;;;;;;7.15;4.80;;;;;;;14.93;74.37;102341.41;5010418;28;20355;-55
2021/06/24 06:18:26;;;;;;;9.33;4.93;;;;;;;15.18;73.99;102331.31;5010837;28;20490;-52
2021/06/24 06:20:53;;;;;;;9.13;5.17;;;;;;;15.49;72.91;102335.25;5008066;28;20292;-54
2021/06/24 06:23:20;;;;;;;13.47;5.10;;;;;;;15.65;71.93;102338.06;5011560;28;20303;-57
2021/06/24 06:25:46;;;;;;;10.23;4.90;;;;;;;15.90;71.30;102333.38;5007940;28;20284;-54
2021/06/24 06:28:15;;;;;;;7.13;4.35;;;;;;;16.08;71.30;102329.75;5007144;28;20292;-53
2021/06/24 06:30:41;;;;;;;8.77;4.67;;;;;;;16.24;68.91;102335.25;5008267;28;20136;-55
2021/06/24 06:33:06;;;;;;;8.50;3.90;;;;;;;16.53;67.59;102331.97;5009939;28;20809;-55
2021/06/24 06:35:32;;;;;;;5.75;4.38;;;;;;;16.80;65.58;102324.28;5010627;28;20035;-55
2021/06/24 06:37:58;;;;;;;9.00;4.82;;;;;;;16.88;65.29;102326.56;5009239;28;20032;-56
2021/06/24 06:40:23;;;;;;;8.07;4.30;;;;;;;16.82;66.12;102333.16;5008057;28;20496;-55
2021/06/24 06:42:48;;;;;;;6.10;4.20;;;;;;;17.83;62.66;102339.34;5006652;28;20076;-56
2021/06/24 06:45:17;;;;;;;10.65;4.22;;;;;;;18.43;59.97;102334.97;5008664;28;20045;-58
2021/06/24 06:47:43;;;;;;;7.70;3.97;;;;;;;18.73;59.24;102328.66;5004393;28;20033;-55
2021/06/24 06:50:08;;;;;;;7.15;4.10;;;;;;;18.59;59.17;102328.63;5009548;28;20288;-55
2021/06/24 06:52:34;;;;;;;7.85;4.20;;;;;;;18.26;60.27;102327.88;5008601;28;20091;-54
2021/06/24 06:54:59;;;;;;;13.35;4.50;;;;;;;18.24;61.54;102324.41;5001626;28;20026;-54
2021/06/24 06:57:25;;;;;;;8.65;3.80;;;;;;;18.48;60.41;102327.44;5003241;28;20045;-56
2021/06/24 06:59:50;;;;;;;5.13;3.50;;;;;;;19.36;58.35;102325.69;5000864;28;20481;-54
2021/06/24 07:02:15;;;;;;;;;;;;;;;20.33;55.11;102316.59;5006628;28;20031;-54
2021/06/24 07:04:41;;;;;;;8.40;3.77;;;;;;;20.43;52.16;102324.09;5003535;28;19971;-57
2021/06/24 07:07:06;;;;;;;;;;;;;;;20.77;51.79;102325.38;5007310;28;20421;-55
2021/06/24 07:09:31;;;;;;;7.97;3.60;;;;;;;20.54;52.23;102322.38;4999625;28;20019;-52
2021/06/24 07:11:56;;;;;;;;;;;;;;;20.22;52.77;102330.03;5004989;28;20076;-56
2021/06/24 07:14:22;;;;;;;8.10;3.43;;;;;;;19.70;53.83;102332.47;5007953;28;19921;-56
2021/06/24 07:16:47;;;;;;;;;;;;;;;19.65;53.59;102329.22;5004014;28;20084;-57
2021/06/24 07:19:13;;;;;;;8.93;3.70;;;;;;;19.56;56.59;102328.00;5011955;28;19978;-56
2021/06/24 07:21:38;;;;;;;;;;;;;;;19.50;54.02;102325.66;5009867;28;20089;-56
2021/06/24 07:24:04;;;;;;;7.43;3.47;;;;;;;19.04;53.83;102329.50;5008680;28;20335;-57
2021/06/24 07:26:30;;;;;;;7.97;3.30;;;;;;;18.76;54.87;102331.19;5015979;28;20144;-57
2021/06/24 07:28:55;;;;;;;7.80;3.50;;;;;;;18.58;56.77;102332.31;5003105;28;20284;-56
2021/06/24 07:31:20;;;;;;;8.18;3.33;;;;;;;18.44;55.67;102325.91;5012175;28;20036;-57
2021/06/24 07:33:46;;;;;;;9.63;3.58;;;;;;;17.72;57.36;102328.28;5009389;28;20620;-56
2021/06/24 07:36:12;;;;;;;8.73;3.30;;;;;;;17.53;59.42;102328.44;5008188;28;20614;-57
2021/06/24 07:38:37;;;;;;;9.40;3.60;;;;;;;17.45;60.24;102334.28;5010336;28;20044;-55
2021/06/24 07:41:03;;;;;;;7.45;3.03;;;;;;;17.08;59.71;102329.09;5007078;28;20112;-57
2021/06/24 07:43:28;;;;;;;13.18;3.85;;;;;;;17.28;61.13;102334.34;5008659;28;20504;-56
2021/06/24 07:45:54;;;;;;;5.55;3.05;;;;;;;17.45;61.35;102336.97;5006014;28;20036;-59
2021/06/24 07:48:19;;;;;;;6.00;3.45;;;;;;;17.65;59.82;102332.28;5008127;28;20033;-55
2021/06/24 07:50:44;;;;;;;12.27;3.83;;;;;;;17.64;59.25;102334.13;5005067;28;20285;-54
2021/06/24 07:53:10;;;;;;;5.60;3.17;;;;;;;17.43;57.92;102330.78;5012522;28;20384;-55
2021/06/24 07:55:35;;;;;;;12.30;3.83;;;;;;;17.33;60.00;102337.66;5011559;28;20033;-55
2021/06/24 07:58:03;;;;;;;5.60;2.90;;;;;;;17.46;59.98;102327.94;5013195;28;20445;-55
2021/06/24 08:00:29;;;;;;;10.53;3.40;;;;;;;17.44;58.46;102331.66;5007761;28;20136;-57
2021/06/24 08:02:54;;;;;;;9.20;2.83;;;;;;;17.47;60.12;102335.03;5015151;28;20884;-55
2021/06/24 08:05:20;;;;;;;9.27;3.17;;;;;;;17.52;58.62;102327.59;5010209;28;20315;-56
2021/06/24 08:07:47;;;;;;;5.45;2.95;;;;;;;17.28;57.46;102331.66;5011967;28;20030;-58
2021/06/24 08:10:13;;;;;;;7.67;3.13;;;;;;;17.01;57.99;102332.22;5012108;28;20059;-55
2021/06/24 08:12:40;;;;;;;7.65;3.10;;;;;;;17.01;59.31;102324.97;5010397;28;20316;-56
2021/06/24 08:15:07;;;;;;;6.77;3.20;;;;;;;17.21;58.53;102329.28;5010633;28;20033;-55
2021/06/24 08:17:33;;;;;;;7.73;3.40;;;;;;;17.16;59.83;102335.88;5010910;28;20276;-56
2021/06/24 08:19:58;;;;;;;5.18;2.63;;;;;;;17.01;60.98;102329.53;5009496;28;20354;-53
2021/06/24 08:22:24;;;;;;;9.43;3.08;;;;;;;17.05;61.42;102323.00;5014216;28;20241;-55
2021/06/24 08:24:49;;;;;;;9.32;2.83;;;;;;;17.14;60.59;102327.88;5006451;28;20788;-57
2021/06/24 08:27:14;;;;;;;8.50;3.00;;;;;;;17.25;59.41;102320.06;5010043;28;20060;-57
2021/06/24 08:29:40;;;;;;;5.83;2.93;;;;;;;17.50;59.32;102324.09;5011323;28;20040;-55
2021/06/24 08:32:06;;;;;;;6.15;2.75;;;;;;;17.67;58.65;102319.56;5011235;28;20257;-55
2021/06/24 08:34:33;;;;;;;6.40;2.63;;;;;;;17.98;57.37;102320.53;5009807;28;20029;-55
2021/06/24 08:36:58;;;;;;;5.27;2.90;;;;;;;19.21;52.74;102319.44;5010990;28;20033;-56
2021/06/24 08:39:23;;;;;;;8.48;2.90;;;;;;;20.19;49.80;102311.25;5015862;28;20280;-57
2021/06/24 08:41:51;;;;;;;;;;;;;;;20.40;47.52;102314.34;5010447;28;20464;-56
2021/06/24 08:44:18;;;;;;;7.25;3.05;;;;;;;20.31;47.30;102312.25;5013735;28;19974;-59
2021/06/24 08:46:43;;;;;;;4.53;2.97;;;;;;;20.34;50.14;102315.63;5006605;28;20034;-55
2021/06/24 08:49:09;;;;;;;;;;;;;;;20.41;50.64;102307.94;5010729;28;20363;-55
2021/06/24 08:51:34;;;;;;;5.50;2.40;;;;;;;20.81;50.05;102316.00;5011421;28;20006;-55
2021/06/24 08:54:00;;;;;;;;;;;;;;;20.96;48.46;102310.47;5013699;28;20038;-56
2021/06/24 08:56:25;;;;;;;6.83;3.17;;;;;;;20.90;46.86;102310.91;5012788;28;20208;-55
2021/06/24 08:58:52;;;;;;;;;;;;;;;21.28;49.10;102310.88;5002881;28;20033;-55
2021/06/24 09:01:19;;;;;;;4.45;2.53;;;;;;;21.39;46.02;102314.63;5008600;28;19975;-54
2021/06/24 09:03:46;;;;;;;6.67;2.87;;;;;;;20.99;48.86;102313.88;5009844;28;20037;-57
2021/06/24 09:06:11;;;;;;;8.33;2.70;;;;;;;20.65;46.90;102318.06;5006609;28;20045;-55
2021/06/24 09:08:40;;;;;;;;;;;;;;;19.96;48.32;102324.50;5012546;28;20029;-54
2021/06/24 09:11:21;;;;;;;8.27;2.63;;;;;;;19.60;52.39;102325.97;5006942;28;19921;-56
2021/06/24 09:14:04;;;;;;;5.37;2.60;;;;;;;19.22;50.08;102323.88;5009690;28;20116;-58
2021/06/24 09:16:32;;;;;;;6.53;3.33;;;;;;;19.26;54.37;102322.72;5014020;28;20299;-55
2021/06/24 09:19:19;;;;;;;6.13;2.67;;;;;;;19.29;51.49;102327.94;5011098;28;20483;-54
2021/06/24 09:21:48;;;;;;;5.80;2.53;;;;;;;19.16;53.57;102327.00;5007921;28;20275;-55
2021/06/24 09:24:25;;;;;;;7.17;2.77;;;;;;;19.19;54.74;102332.19;5012879;28;20287;-56
2021/06/24 09:26:51;;;;;;;8.73;3.60;;;;;;;19.05;52.28;102328.53;5008950;28;20845;-57
2021/06/24 09:29:18;;;;;;;6.63;2.55;;;;;;;18.78;52.56;102326.53;5013962;28;20379;-57
2021/06/24 09:31:45;;;;;;;7.40;2.87;;;;;;;18.79;56.51;102333.69;5014604;28;20352;-53
2021/06/24 09:34:15;;;;;;;6.37;2.57;;;;;;;18.90;53.02;102334.88;5010473;28;20768;-56
2021/06/24 09:36:42;;;;;;;8.53;3.13;;;;;;;19.13;52.06;102333.44;5007497;28;20329;-56
2021/06/24 09:39:11;;;;;;;7.70;3.07;;;;;;;19.80;49.17;102329.19;5009524;28;20284;-53
2021/06/24 09:41:37;;;;;;;8.00;2.70;;;;;;;20.54;48.23;102335.94;5013690;28;20807;-53
2021/06/24 09:44:29;;;;;;;5.30;2.70;;;;;;;21.69;47.53;102318.81;5011448;28;20893;-56
2021/06/24 09:46:56;;;;;;;5.47;2.43;;;;;;;22.35;44.97;102323.81;5007650;28;20097;-57
2021/06/24 09:49:28;;;;;;;6.43;3.40;;;;;;;22.42;42.63;102327.81;5007937;28;20440;-55
2021/06/24 09:51:54;;;;;;;9.07;2.90;;;;;;;21.90;42.76;102317.22;5016449;28;20060;-56
2021/06/24 09:54:29;;;;;;;7.27;3.00;;;;;;;21.76;47.60;102325.56;5005819;28;21359;-53
2021/06/24 09:56:56;;;;;;;7.37;2.83;;;;;;;21.76;46.49;102314.69;5008468;28;20040;-56
2021/06/24 09:59:31;;;;;;;8.47;3.50;;;;;;;21.26;46.22;102322.84;5003985;28;20440;-56
2021/06/24 10:01:57;;;;;;;9.50;3.58;;;;;;;20.93;47.99;102318.84;5011136;28;20033;-52
2021/06/24 10:04:33;;;;;;;8.57;2.87;;;;;;;21.37;46.81;102316.63;5012308;28;20049;-57
2021/06/24 10:07:00;;;;;;;5.47;2.75;;;;;;;21.84;47.02;102304.06;5009741;28;20645;-55
2021/06/24 10:09:27;;;;;;;7.93;3.37;;;;;;;21.61;44.40;102311.25;5009542;28;20104;-55
2021/06/24 10:11:53;;;;;;;5.97;2.70;;;;;;;21.57;46.18;102312.44;5010408;28;20698;-56
2021/06/24 10:14:19;;;;;;;5.03;2.63;;;;;;;21.75;46.83;102313.81;5014122;28;20041;-56
2021/06/24 10:16:58;;;;;;;5.93;2.93;;;;;;;22.05;49.46;102320.63;5005293;28;20196;-57
2021/06/24 10:19:26;;;;;;;8.57;2.90;;;;;;;22.55;47.01;102316.88;5009310;28;20029;-54
2021/06/24 10:21:56;;;;;;;7.00;2.87;;;;;;;22.18;44.05;102315.09;5012026;28;20469;-55
2021/06/24 10:24:29;;;;;;;8.40;3.03;;;;;;;21.07;46.34;102323.28;5007736;28;20128;-55
2021/06/24 10:26:57;;;;;;;8.17;2.70;;;;;;;21.09;47.16;102321.31;5009783;28;20065;-56
2021/06/24 10:29:23;;;;;;;3.77;3.00;;;;;;;20.95;45.65;102317.75;5006813;28;20041;-56
2021/06/24 10:31:53;;;;;;;6.63;3.27;;;;;;;20.36;47.85;102313.69;5012906;28;20379;-56
2021/06/24 10:34:19;;;;;;;4.77;2.90;;;;;;;20.14;50.28;102316.97;5007964;28;20029;-56
2021/06/24 10:37:13;;;;;;;7.73;3.20;;;;;;;19.97;48.45;102318.13;5007491;28;20026;-57
2021/06/24 10:39:41;;;;;;;9.37;3.10;;;;;;;20.50;48.95;102317.28;5006750;28;20493;-55
2021/06/24 10:42:10;;;;;;;6.80;3.17;;;;;;;20.52;48.53;102315.34;5011020;28;20044;-56
2021/06/24 10:44:56;;;;;;;8.67;4.07;;;;;;;19.89;48.74;102318.63;5009675;28;20040;-54
2021/06/24 10:47:32;;;;;;;4.03;3.13;;;;;;;19.67;48.61;102327.28;5009438;28;20098;-57
2021/06/24 10:50:30;;;;;;;8.65;3.80;;;;;;;19.61;47.98;102322.28;5007337;28;20068;-56
2021/06/24 10:53:19;;;;;;;7.23;3.80;;;;;;;19.85;49.20;102313.50;5011436;28;20048;-55
2021/06/24 10:55:52;;;;;;;5.10;3.70;;;;;;;20.75;50.00;102311.03;5006873;28;20652;-54
2021/06/24 10:58:17;;;;;;;6.47;3.20;;;;;;;21.54;46.27;102305.38;5009013;28;20292;-56
2021/06/24 11:00:50;;;;;;;6.00;2.70;;;;;;;22.24;45.75;102301.03;5010784;28;20460;-56
2021/06/24 11:03:31;;;;;;;5.30;2.43;;;;;;;22.40;43.05;102298.03;4989432;28;20398;-54
2021/06/24 11:06:08;;;;;;;4.17;2.50;;;;;;;21.88;44.72;102310.16;5011266;28;20042;-56
2021/06/24 11:08:33;;;;;;;8.57;2.63;;;;;;;21.28;46.51;102304.56;5009936;28;20622;-56
2021/06/24 11:11:00;;;;;;;4.90;2.90;;;;;;;21.02;48.54;102299.22;5006228;28;20636;-55
2021/06/24 11:13:35;;;;;;;5.77;3.00;;;;;;;21.83;48.47;102305.09;5004939;28;20132;-56
2021/06/24 11:16:01;;;;;;;8.90;2.53;;;;;;;22.69;46.32;102302.16;5013146;28;20094;-56
2021/06/24 11:18:38;;;;;;;5.83;2.60;;;;;;;23.18;43.05;102303.69;5004994;28;20125;-54
2021/06/24 11:21:30;;;;;;;5.10;2.70;;;;;;;23.17;43.82;102304.69;5009253;28;20712;-56
2021/06/24 11:24:19;;;;;;;8.90;3.23;;;;;;;22.89;41.50;102297.84;5001510;28;20045;-56
2021/06/24 11:26:47;;;;;;;5.30;2.70;;;;;;;22.75;43.29;102301.69;5012074;28;20080;-57